Time;durP1;ratioP1;P1;durP2;ratioP2;P2;SDS_P1;SDS_P2;PMS_P1;PMS_P2;Temp;Humidity;BMP_temperature;BMP_pressure;BME280_temperature;BME280_humidity;BME280_pressure;Samples;Min_cycle;Max_cycle;Signal;HPM_P1;HPM_P2
2023/08/23 00:00:04;;;;;;;5.32;2.70;;;;;;;-142.75;100.00;76558.47;5028448;28;20029;-62
2023/08/23 00:02:30;;;;;;;5.40;2.65;;;;;;;-142.75;100.00;76558.47;5028351;28;20104;-63
2023/08/23 00:04:55;;;;;;;10.38;2.67;;;;;;;-142.75;100.00;76582.09;5028205;28;20314;-62
2023/08/23 00:07:20;;;;;;;5.03;2.72;;;;;;;-142.75;100.00;76574.22;5028221;28;20075;-61
2023/08/23 00:09:46;;;;;;;7.43;2.50;;;;;;;-142.75;100.00;76570.28;5028523;28;20040;-62
2023/08/23 00:12:11;;;;;;;10.05;3.30;;;;;;;-142.75;100.00;76570.28;5028042;28;20029;-62
2023/08/23 00:14:37;;;;;;;4.88;3.17;;;;;;;-142.75;100.00;76578.16;5027619;28;20062;-62
2023/08/23 00:17:03;;;;;;;4.72;2.70;;;;;;;-142.75;100.00;76570.28;5028028;28;20028;-62
2023/08/23 00:19:28;;;;;;;5.57;3.38;;;;;;;-142.75;100.00;76578.16;5027823;28;20041;-62
2023/08/23 00:21:53;;;;;;;3.95;2.90;;;;;;;-142.75;100.00;76576.19;5027808;28;20493;-63
2023/08/23 00:24:19;;;;;;;4.97;3.05;;;;;;;-142.75;100.00;76570.28;5027648;28;20033;-62
2023/08/23 00:26:45;;;;;;;6.80;2.92;;;;;;;-142.75;100.00;76568.31;5028049;28;20112;-62
2023/08/23 00:29:10;;;;;;;5.72;2.80;;;;;;;-142.75;100.00;76570.28;5028078;28;20260;-62
2023/08/23 00:31:36;;;;;;;3.90;2.40;;;;;;;-142.75;100.00;76568.31;5027950;28;20057;-63
2023/08/23 00:34:01;;;;;;;4.35;2.53;;;;;;;-142.75;100.00;76566.34;5027525;28;20025;-63
2023/08/23 00:36:27;;;;;;;5.50;2.65;;;;;;;-142.75;100.00;76578.16;5027569;28;20640;-62
2023/08/23 00:38:54;;;;;;;6.75;2.38;;;;;;;-142.75;100.00;76566.34;5027300;28;20030;-62
2023/08/23 00:41:19;;;;;;;4.93;2.80;;;;;;;-142.75;100.00;76556.50;5027404;28;20034;-63
2023/08/23 00:43:45;;;;;;;5.57;2.10;;;;;;;-142.75;100.00;76527.00;5027763;28;20025;-62
2023/08/23 00:46:10;;;;;;;4.15;2.20;;;;;;;-142.75;100.00;76528.97;5027473;28;20017;-63
2023/08/23 00:48:36;;;;;;;6.95;2.47;;;;;;;-142.75;100.00;76523.06;5027408;28;20452;-62
2023/08/23 00:51:01;;;;;;;4.72;2.60;;;;;;;-142.75;100.00;76528.97;5027272;28;20029;-62
2023/08/23 00:53:27;;;;;;;5.47;3.13;;;;;;;-142.75;100.00;76511.25;5027415;28;20041;-62
2023/08/23 00:55:52;;;;;;;5.05;3.20;;;;;;;-142.75;100.00;76513.22;5027251;28;20664;-63
2023/08/23 00:58:18;;;;;;;6.90;3.08;;;;;;;-142.75;100.00;76515.19;5027234;28;20057;-62
2023/08/23 01:00:44;;;;;;;7.60;3.60;;;;;;;-142.75;100.00;76509.28;5027329;28;20025;-63
2023/08/23 01:03:10;;;;;;;4.18;3.00;;;;;;;-142.75;100.00;76503.38;5027241;28;20529;-62
2023/08/23 01:06:06;;;;;;;5.60;3.05;;;;;;;-142.75;100.00;76503.38;5026762;28;20035;-63
2023/08/23 01:08:42;;;;;;;4.77;2.80;;;;;;;-142.75;100.00;76530.91;5027417;28;20112;-62
2023/08/23 01:11:43;;;;;;;3.65;2.17;;;;;;;-142.75;100.00;76540.75;5027127;28;20029;-62
2023/08/23 01:14:31;;;;;;;6.38;2.55;;;;;;;-142.75;100.00;76536.84;5025255;28;20044;-62
2023/08/23 01:16:58;;;;;;;5.90;2.63;;;;;;;-142.75;100.00;76542.72;5026967;28;20029;-62
2023/08/23 01:19:44;;;;;;;6.50;3.03;;;;;;;-142.75;100.00;76538.78;5026629;28;20040;-62
2023/08/23 01:22:10;;;;;;;;;;;;;;;-142.75;100.00;76523.06;5027435;28;20029;-62
2023/08/23 01:24:36;;;;;;;5.07;2.92;;;;;;;-142.75;100.00;76530.91;5026394;28;20078;-62
2023/08/23 01:27:02;;;;;;;4.13;2.20;;;;;;;-142.75;100.00;76530.91;5026761;28;20592;-62
2023/08/23 01:29:27;;;;;;;6.00;3.10;;;;;;;-142.75;100.00;76530.91;5045368;28;20116;-62
2023/08/23 01:31:56;;;;;;;4.90;2.28;;;;;;;-142.75;100.00;76530.91;5046480;28;20028;-62
2023/08/23 01:34:27;;;;;;;5.75;3.10;;;;;;;-142.75;100.00;76530.91;5045687;28;20032;-62
2023/08/23 01:36:54;;;;;;;5.20;3.08;;;;;;;-142.75;100.00;76525.03;5046301;28;20031;-62
2023/08/23 01:39:25;;;;;;;5.63;3.00;;;;;;;-142.75;100.00;76507.31;5041964;28;20025;-61
2023/08/23 01:41:51;;;;;;;5.63;3.15;;;;;;;-142.75;100.00;76507.31;5045939;28;20656;-62
2023/08/23 01:44:17;;;;;;;4.28;2.63;;;;;;;-142.75;100.00;76505.34;5046030;28;20021;-62
2023/08/23 01:46:42;;;;;;;5.25;2.90;;;;;;;-142.75;100.00;76487.63;5046163;28;20502;-62
2023/08/23 01:49:08;;;;;;;8.13;2.83;;;;;;;-142.75;100.00;76485.66;5046013;28;20074;-62
2023/08/23 01:51:33;;;;;;;5.22;3.17;;;;;;;-142.75;100.00;76505.34;5045129;28;20061;-62
2023/08/23 01:53:58;;;;;;;6.88;3.72;;;;;;;-142.75;100.00;76505.34;5045795;28;20585;-62
2023/08/23 01:56:24;;;;;;;4.93;3.30;;;;;;;-142.75;100.00;76491.56;5045783;28;20099;-62
2023/08/23 01:58:49;;;;;;;5.88;3.20;;;;;;;-142.75;100.00;76503.38;5045914;28;20029;-62
2023/08/23 02:01:14;;;;;;;6.63;3.38;;;;;;;-142.75;100.00;76495.50;5045897;28;20029;-62
2023/08/23 02:03:39;;;;;;;5.65;3.65;;;;;;;-142.75;100.00;76491.56;5045855;28;20051;-62
2023/08/23 02:06:05;;;;;;;7.75;3.75;;;;;;;-142.75;100.00;76497.47;5045410;28;20021;-62
2023/08/23 02:08:30;;;;;;;6.30;3.78;;;;;;;-142.75;100.00;76487.63;5046061;28;20020;-63
2023/08/23 02:10:55;;;;;;;10.40;3.65;;;;;;;-142.75;100.00;76495.50;5045664;28;20116;-62
2023/08/23 02:13:21;;;;;;;10.18;4.18;;;;;;;-142.75;100.00;76503.38;5045454;28;20073;-62
2023/08/23 02:15:47;;;;;;;7.47;3.55;;;;;;;-142.75;100.00;76499.44;5045549;28;20024;-62
2023/08/23 02:18:12;;;;;;;4.70;3.20;;;;;;;-142.75;100.00;76497.47;5045372;28;20054;-62
2023/08/23 02:20:38;;;;;;;6.95;3.13;;;;;;;-142.75;100.00;76497.47;5045374;28;20104;-62
2023/08/23 02:23:03;;;;;;;4.88;2.97;;;;;;;-142.75;100.00;76503.38;5045572;28;20087;-62
2023/08/23 02:25:28;;;;;;;5.90;2.97;;;;;;;-142.75;100.00;76511.25;5045433;28;21729;-62
2023/08/23 02:27:54;;;;;;;6.13;3.90;;;;;;;-142.75;100.00;76527.00;5045375;28;20439;-62
2023/08/23 02:30:19;;;;;;;5.38;3.45;;;;;;;-142.75;100.00;76527.00;5043351;28;20091;-62
2023/08/23 02:32:44;;;;;;;6.97;3.67;;;;;;;-142.75;100.00;76511.25;5025575;28;20030;-62
2023/08/23 02:35:10;;;;;;;4.68;3.35;;;;;;;-142.75;100.00;76519.13;5025331;28;20056;-62
2023/08/23 02:37:35;;;;;;;7.78;4.18;;;;;;;-142.75;100.00;76507.31;5025189;28;20101;-62
2023/08/23 02:40:01;;;;;;;7.65;4.30;;;;;;;-142.75;100.00;76491.56;5025784;28;20041;-61
2023/08/23 02:42:26;;;;;;;5.72;3.63;;;;;;;-142.75;100.00;76493.53;5025318;28;20140;-62
2023/08/23 02:44:52;;;;;;;5.93;3.65;;;;;;;-142.75;100.00;76491.56;5024968;28;20040;-61
2023/08/23 02:47:17;;;;;;;8.07;5.28;;;;;;;-142.75;100.00;76485.66;5025574;28;20068;-62
2023/08/23 02:49:42;;;;;;;10.00;4.65;;;;;;;-142.75;100.00;76485.66;5025245;28;20032;-62
2023/08/23 02:52:08;;;;;;;8.05;4.95;;;;;;;-142.75;100.00;76471.88;5025130;28;20026;-62
2023/08/23 02:54:33;;;;;;;11.23;5.53;;;;;;;-142.75;100.00;76473.84;5024889;28;20100;-62
2023/08/23 02:56:58;;;;;;;8.48;5.00;;;;;;;-142.75;100.00;76465.97;5025309;28;20061;-62
2023/08/23 02:59:24;;;;;;;11.18;5.65;;;;;;;-142.75;100.00;76475.81;5025431;28;20089;-62
2023/08/23 03:01:49;;;;;;;8.75;5.40;;;;;;;-142.75;100.00;76464.00;5025230;28;20017;-62
2023/08/23 03:04:14;;;;;;;12.00;6.88;;;;;;;-142.75;100.00;76450.22;5024819;28;20397;-62
2023/08/23 03:06:40;;;;;;;12.85;6.28;;;;;;;-142.75;100.00;76446.28;5024984;28;20032;-62
2023/08/23 03:09:05;;;;;;;12.43;6.40;;;;;;;-142.75;100.00;76448.25;5025641;28;20026;-61
2023/08/23 03:11:30;;;;;;;11.68;6.45;;;;;;;-142.75;100.00;76448.25;5025179;28;20033;-62
2023/08/23 03:13:56;;;;;;;8.82;5.60;;;;;;;-142.75;100.00;76436.44;5024858;28;20021;-62
2023/08/23 03:16:22;;;;;;;13.70;7.30;;;;;;;-142.75;100.00;76432.50;5024974;28;20044;-62
2023/08/23 03:18:47;;;;;;;12.27;6.78;;;;;;;-142.75;100.00;76434.47;5025210;28;20044;-62
2023/08/23 03:21:12;;;;;;;11.02;6.53;;;;;;;-142.75;100.00;76428.56;5024950;28;20598;-62
2023/08/23 03:23:39;;;;;;;9.70;6.20;;;;;;;-142.75;100.00;76420.69;5024722;28;20025;-62
2023/08/23 03:26:04;;;;;;;12.80;7.18;;;;;;;-142.75;100.00;76412.81;5024930;28;20029;-62
2023/08/23 03:28:29;;;;;;;13.27;7.63;;;;;;;-142.75;100.00;76412.81;5024935;28;20025;-62
2023/08/23 03:31:00;;;;;;;15.45;8.52;;;;;;;-142.75;100.00;76408.88;5025378;28;20040;-61
2023/08/23 03:33:26;;;;;;;16.98;8.52;;;;;;;-142.75;100.00;76422.66;5024940;28;20416;-62
2023/08/23 03:35:53;;;;;;;16.33;8.25;;;;;;;-142.75;100.00;76402.97;5024558;28;20033;-62
2023/08/23 03:38:18;;;;;;;15.90;9.20;;;;;;;-142.75;100.00;76401.00;5025712;28;20040;-62
2023/08/23 03:40:44;;;;;;;14.68;8.25;;;;;;;-142.75;100.00;76408.88;5024959;28;20025;-62
2023/08/23 03:43:09;;;;;;;15.32;7.93;;;;;;;-142.75;100.00;76402.97;5024779;28;20013;-62
2023/08/23 03:45:34;;;;;;;14.95;7.28;;;;;;;-142.75;100.00;76399.03;5024520;28;20083;-62
2023/08/23 03:48:00;;;;;;;10.73;6.53;;;;;;;-142.75;100.00;76399.03;5024836;28;20473;-62
2023/08/23 03:50:25;;;;;;;16.00;8.18;;;;;;;-142.75;100.00;76408.88;5024589;28;20033;-62
2023/08/23 03:52:50;;;;;;;17.42;8.77;;;;;;;-142.75;100.00;76418.72;5024536;28;20116;-61
2023/08/23 03:55:16;;;;;;;16.02;8.35;;;;;;;-142.75;100.00;76426.59;5024697;28;20362;-62
2023/08/23 03:57:41;;;;;;;17.67;9.35;;;;;;;-142.75;100.00;76432.50;5024543;28;20052;-62
2023/08/23 04:00:07;;;;;;;16.83;8.88;;;;;;;-142.75;100.00;76422.66;5025068;28;20108;-62
2023/08/23 04:02:33;;;;;;;18.98;12.20;;;;;;;-142.75;100.00;76422.66;5024404;28;20546;-62
2023/08/23 04:04:58;;;;;;;22.17;11.43;;;;;;;-142.75;100.00;76418.72;5024179;28;20025;-62
2023/08/23 04:07:23;;;;;;;23.67;12.63;;;;;;;-142.75;100.00;76402.97;5024636;28;20055;-62
2023/08/23 04:09:49;;;;;;;28.10;13.50;;;;;;;-142.75;100.00;76401.00;5025566;28;20029;-62
2023/08/23 04:12:14;;;;;;;20.75;13.00;;;;;;;-142.75;100.00;76406.91;5023461;28;20106;-62
2023/08/23 04:14:39;;;;;;;25.88;13.82;;;;;;;-142.75;100.00;76410.84;5023244;28;20072;-62
2023/08/23 04:17:05;;;;;;;23.50;12.77;;;;;;;-142.75;100.00;76418.72;5027544;28;20021;-63
2023/08/23 04:19:30;;;;;;;21.17;12.35;;;;;;;-142.75;100.00;76410.84;5026595;28;20040;-62
2023/08/23 04:21:56;;;;;;;28.38;14.20;;;;;;;-142.75;100.00;76414.78;5027602;28;20113;-62
2023/08/23 04:24:21;;;;;;;25.40;14.50;;;;;;;-142.75;100.00;76401.00;5026667;28;20025;-62
2023/08/23 04:26:47;;;;;;;25.48;12.43;;;;;;;-142.75;100.00;76395.09;5028184;28;20018;-62
2023/08/23 04:29:12;;;;;;;22.88;13.27;;;;;;;-142.75;100.00;76383.28;5028064;28;20029;-62
2023/08/23 04:31:37;;;;;;;21.77;12.98;;;;;;;-142.75;100.00;76381.31;5027793;28;20029;-62
2023/08/23 04:34:04;;;;;;;23.90;12.93;;;;;;;-142.75;100.00;76385.25;5027476;28;20106;-62
2023/08/23 04:36:30;;;;;;;23.55;13.40;;;;;;;-142.75;100.00;76393.13;5027615;28;20057;-62
2023/08/23 04:38:56;;;;;;;29.90;12.98;;;;;;;-142.75;100.00;76387.22;5028097;28;20028;-61
2023/08/23 04:41:21;;;;;;;22.48;12.55;;;;;;;-142.75;100.00;76385.25;5027456;28;20104;-62
2023/08/23 04:43:47;;;;;;;23.98;12.98;;;;;;;-142.75;100.00;76401.00;5027595;28;20121;-62
2023/08/23 04:46:12;;;;;;;22.65;12.80;;;;;;;-142.75;100.00;76401.00;5027394;28;20104;-62
2023/08/23 04:48:37;;;;;;;26.08;14.18;;;;;;;-142.75;100.00;76389.19;5027542;28;20052;-62
2023/08/23 04:51:09;;;;;;;29.02;14.38;;;;;;;-142.75;100.00;76379.34;5027339;28;20108;-62
2023/08/23 04:53:34;;;;;;;25.52;13.25;;;;;;;-142.75;100.00;76373.44;5027483;28;20544;-62
2023/08/23 04:55:59;;;;;;;25.45;13.48;;;;;;;-142.75;100.00;76365.56;5027231;28;20101;-62
2023/08/23 04:58:31;;;;;;;27.42;14.25;;;;;;;-142.75;100.00;76355.72;5027138;28;20021;-62
2023/08/23 05:01:03;;;;;;;25.00;13.68;;;;;;;-142.75;100.00;76353.78;5026173;28;20424;-62
2023/08/23 05:03:30;;;;;;;23.77;14.25;;;;;;;-142.75;100.00;76343.94;5026870;28;20029;-62
2023/08/23 05:05:55;;;;;;;25.00;14.48;;;;;;;-142.75;100.00;76343.94;5026739;28;20049;-62
2023/08/23 05:08:20;;;;;;;26.17;14.48;;;;;;;-142.75;100.00;76353.78;5027588;28;20021;-63
2023/08/23 05:10:51;;;;;;;25.20;14.65;;;;;;;-142.75;100.00;76343.94;5027443;28;20021;-62
2023/08/23 05:13:16;;;;;;;24.73;14.02;;;;;;;-142.75;100.00;76345.91;5027387;28;20018;-62
2023/08/23 05:15:41;;;;;;;26.15;14.05;;;;;;;-142.75;100.00;76334.09;5026716;28;20033;-62
2023/08/23 05:18:07;;;;;;;25.83;13.88;;;;;;;-142.75;100.00;76330.16;5027000;28;20032;-62
2023/08/23 05:20:32;;;;;;;24.38;13.27;;;;;;;-142.75;100.00;76326.22;5026799;28;20017;-62
2023/08/23 05:22:58;;;;;;;28.95;13.95;;;;;;;-142.75;100.00;76324.25;5027063;28;20025;-62
2023/08/23 05:25:23;;;;;;;26.13;14.05;;;;;;;-142.75;100.00;76312.44;5025006;28;20036;-61
2023/08/23 05:27:48;;;;;;;22.90;14.10;;;;;;;-142.75;100.00;76298.66;5025708;28;20032;-62
2023/08/23 05:30:14;;;;;;;24.17;14.43;;;;;;;-142.75;100.00;76288.81;5026766;28;20056;-62
2023/08/23 05:32:39;;;;;;;27.55;14.65;;;;;;;-142.75;100.00;76282.91;5026581;28;20108;-62
2023/08/23 05:35:04;;;;;;;30.30;14.85;;;;;;;-142.75;100.00;76267.16;5026524;28;20030;-62
2023/08/23 05:37:30;;;;;;;32.55;16.52;;;;;;;-142.75;100.00;76275.03;5026512;28;20032;-62
2023/08/23 05:39:55;;;;;;;34.65;16.98;;;;;;;-142.75;100.00;76263.22;5026632;28;20020;-61
2023/08/23 05:42:20;;;;;;;32.45;16.48;;;;;;;-142.75;100.00;76259.28;5026257;28;20029;-63
2023/08/23 05:44:46;;;;;;;32.17;16.77;;;;;;;-142.75;100.00;76259.28;5026203;28;20028;-62
2023/08/23 05:47:11;;;;;;;28.98;16.40;;;;;;;-142.75;100.00;76257.31;5026897;28;20060;-62
2023/08/23 05:49:37;;;;;;;29.70;16.58;;;;;;;-142.75;100.00;76253.38;5026019;28;20519;-62
2023/08/23 05:52:02;;;;;;;35.20;17.17;;;;;;;-142.75;100.00;76245.50;5026329;28;20389;-62
2023/08/23 05:54:28;;;;;;;34.33;18.38;;;;;;;-142.75;100.00;76251.41;5025962;28;20115;-62
2023/08/23 05:56:53;;;;;;;30.35;16.73;;;;;;;-142.75;100.00;76231.72;5026166;28;20065;-62
2023/08/23 05:59:19;;;;;;;30.42;16.60;;;;;;;-142.75;100.00;76241.56;5026414;28;20636;-62
2023/08/23 06:01:44;;;;;;;32.55;16.67;;;;;;;-142.75;100.00;76243.53;5026154;28;20473;-62
2023/08/23 06:04:09;;;;;;;33.80;16.88;;;;;;;-142.75;100.00;76239.59;5025738;28;20049;-62
2023/08/23 06:06:35;;;;;;;33.95;16.08;;;;;;;-142.75;100.00;76231.72;5025810;28;20124;-62
2023/08/23 06:09:00;;;;;;;32.53;16.92;;;;;;;-142.75;100.00;76223.84;5026470;28;20722;-62
2023/08/23 06:11:26;;;;;;;34.40;17.60;;;;;;;-142.75;100.00;76198.28;5025925;28;20029;-62
2023/08/23 06:13:51;;;;;;;37.03;16.48;;;;;;;-142.75;100.00;76176.63;5025914;28;20033;-62
2023/08/23 06:16:16;;;;;;;35.80;16.20;;;;;;;-142.75;100.00;76153.00;5025705;28;20108;-61
2023/08/23 06:18:42;;;;;;;33.25;17.13;;;;;;;-142.75;100.00;76137.25;5023457;28;20021;-61
2023/08/23 06:21:07;;;;;;;30.50;15.77;;;;;;;-142.75;100.00;76129.38;5025727;28;20508;-62
2023/08/23 06:23:32;;;;;;;35.95;16.67;;;;;;;-142.75;100.00;76127.41;5025584;28;20048;-63
2023/08/23 06:25:58;;;;;;;27.40;14.50;;;;;;;-142.75;100.00;76111.66;5025426;28;20029;-62
2023/08/23 06:28:24;;;;;;;31.20;17.00;;;;;;;-142.75;100.00;76078.19;5025604;28;20017;-62
2023/08/23 06:30:49;;;;;;;28.67;14.98;;;;;;;-142.75;100.00;76088.03;5026002;28;20059;-61
2023/08/23 06:33:14;;;;;;;26.42;14.32;;;;;;;-142.75;100.00;76086.06;5024389;28;20067;-62
2023/08/23 06:35:40;;;;;;;27.05;13.98;;;;;;;-142.75;100.00;76080.16;5024232;28;20049;-62
2023/08/23 06:38:05;;;;;;;30.00;14.10;;;;;;;-142.75;100.00;76074.25;5025062;28;20084;-62
2023/08/23 06:40:30;;;;;;;24.63;13.45;;;;;;;-142.75;100.00;76062.47;5025339;28;20542;-62
2023/08/23 06:42:56;;;;;;;26.10;13.77;;;;;;;-142.75;100.00;76048.69;5025389;28;20025;-62
2023/08/23 06:45:21;;;;;;;22.35;13.10;;;;;;;-142.75;100.00;76036.88;5021921;28;20112;-62
2023/08/23 06:47:47;;;;;;;24.35;12.70;;;;;;;-142.75;100.00;76080.16;5024954;28;20044;-62
2023/08/23 06:50:12;;;;;;;24.52;12.48;;;;;;;-142.75;100.00;76070.34;5038885;28;20126;-62
2023/08/23 06:52:37;;;;;;;22.73;12.00;;;;;;;-142.75;100.00;76080.16;5044899;28;20021;-62
2023/08/23 06:55:03;;;;;;;21.23;10.63;;;;;;;-142.75;100.00;76074.25;5033435;28;20056;-62
2023/08/23 06:57:29;;;;;;;24.77;11.32;;;;;;;-142.75;100.00;76086.06;5036851;28;20082;-63
2023/08/23 06:59:56;;;;;;;20.45;11.23;;;;;;;-142.75;100.00;76101.81;5030565;28;20032;-62
2023/08/23 07:02:22;;;;;;;23.35;11.75;;;;;;;-142.75;100.00;76066.41;5024563;28;20022;-61
2023/08/23 07:04:47;;;;;;;24.75;11.70;;;;;;;-142.75;100.00;76064.44;5022741;28;20029;-62
2023/08/23 07:07:12;;;;;;;23.90;12.35;;;;;;;-142.75;100.00;76058.53;5027884;28;20056;-62
2023/08/23 07:09:38;;;;;;;24.95;12.93;;;;;;;-142.75;100.00;76054.59;5022093;28;20030;-63
2023/08/23 07:12:03;;;;;;;27.02;12.30;;;;;;;-142.75;100.00;76038.84;5022974;28;20033;-63
2023/08/23 07:14:28;;;;;;;22.95;13.68;;;;;;;-142.75;100.00;76042.78;5022118;28;20029;-63
2023/08/23 07:16:54;;;;;;;21.20;12.85;;;;;;;-142.75;100.00;76032.94;5027657;28;20084;-63
2023/08/23 07:19:19;;;;;;;24.08;13.30;;;;;;;-142.75;100.00;76038.84;5022528;28;20037;-63
2023/08/23 07:21:44;;;;;;;21.15;11.90;;;;;;;-142.75;100.00;76046.72;5021572;28;20030;-64
2023/08/23 07:24:10;;;;;;;23.80;12.15;;;;;;;-142.75;100.00;76046.72;5021712;28;20021;-62
2023/08/23 07:26:36;;;;;;;25.35;12.93;;;;;;;-142.75;100.00;76042.78;5023217;28;20037;-63
2023/08/23 07:29:01;;;;;;;25.00;12.82;;;;;;;-142.75;100.00;76086.06;5024826;28;20033;-64
2023/08/23 07:31:26;;;;;;;23.55;13.60;;;;;;;-142.75;100.00;76088.03;5044339;28;20053;-64
2023/08/23 07:33:52;;;;;;;22.63;12.07;;;;;;;-142.75;100.00;76101.81;5027090;28;20400;-64
2023/08/23 07:36:17;;;;;;;26.30;13.13;;;;;;;-142.75;100.00;76082.13;5024739;28;20493;-63
2023/08/23 07:38:42;;;;;;;25.48;13.77;;;;;;;-142.75;100.00;76070.34;5025702;28;20037;-63
2023/08/23 07:41:08;;;;;;;25.95;13.07;;;;;;;-142.75;100.00;76070.34;5024291;28;20029;-63
2023/08/23 07:43:33;;;;;;;21.85;11.50;;;;;;;-142.75;100.00;76091.97;5035386;28;20032;-63
2023/08/23 07:46:00;;;;;;;22.75;12.45;;;;;;;-142.75;100.00;76093.94;5028171;28;20033;-62
2023/08/23 07:48:27;;;;;;;20.85;12.20;;;;;;;-142.75;100.00;76034.91;5025822;28;20473;-62
2023/08/23 07:50:55;;;;;;;26.35;13.20;;;;;;;-142.75;100.00;76038.84;5026080;28;20033;-62
2023/08/23 07:53:22;;;;;;;24.83;13.13;;;;;;;-142.75;100.00;76076.22;5027554;28;20424;-62
2023/08/23 07:55:47;;;;;;;20.90;12.07;;;;;;;-142.75;100.00;76064.44;5026580;28;20025;-63
2023/08/23 07:58:13;;;;;;;23.23;13.15;;;;;;;-142.75;100.00;76095.91;5027418;28;20051;-62
2023/08/23 08:00:38;;;;;;;24.27;12.35;;;;;;;-142.75;100.00;76090.00;5028388;28;20103;-62
2023/08/23 08:03:04;;;;;;;25.13;12.73;;;;;;;-142.75;100.00;76080.16;5027680;28;20085;-63
2023/08/23 08:05:30;;;;;;;21.17;12.35;;;;;;;-142.75;100.00;76086.06;5027250;28;20033;-63
2023/08/23 08:07:56;;;;;;;24.48;12.88;;;;;;;-142.75;100.00;76088.03;5027843;28;20496;-62
2023/08/23 08:10:22;;;;;;;24.83;11.70;;;;;;;-142.75;100.00;76090.00;5028610;28;20033;-62
2023/08/23 08:12:47;;;;;;;23.67;13.05;;;;;;;-142.75;100.00;76066.41;5028220;28;20025;-63
2023/08/23 08:15:13;;;;;;;25.52;14.30;;;;;;;-142.75;100.00;76060.50;5027549;28;20029;-63
2023/08/23 08:17:38;;;;;;;21.17;12.27;;;;;;;-142.75;100.00;76078.19;5027519;28;20025;-63
2023/08/23 08:20:05;;;;;;;26.95;14.20;;;;;;;-142.75;100.00;76062.47;5025931;28;20033;-63
2023/08/23 08:22:31;;;;;;;28.00;13.25;;;;;;;-142.75;100.00;75993.56;5027447;28;20428;-64
2023/08/23 08:24:57;;;;;;;28.75;13.38;;;;;;;-142.75;100.00;76013.25;5026282;28;20068;-63
2023/08/23 08:27:23;;;;;;;21.85;12.25;;;;;;;-142.75;100.00;75989.63;5027443;28;20025;-63
2023/08/23 08:29:48;;;;;;;27.60;12.35;;;;;;;-142.75;100.00;75991.59;5028657;28;20022;-64
2023/08/23 08:32:13;;;;;;;21.17;12.20;;;;;;;-142.75;100.00;75960.13;5027825;28;20045;-63
2023/08/23 08:34:39;;;;;;;22.75;11.98;;;;;;;-142.75;100.00;75936.50;5027281;28;20156;-64
2023/08/23 08:37:06;;;;;;;21.50;10.90;;;;;;;-142.75;100.00;75928.63;5026804;28;20031;-64
2023/08/23 08:39:31;;;;;;;17.00;10.40;;;;;;;-142.75;100.00;75936.50;5028350;28;20704;-63
2023/08/23 08:41:56;;;;;;;18.40;11.02;;;;;;;-142.75;100.00;75960.13;5027389;28;20033;-62
2023/08/23 08:44:23;;;;;;;19.83;10.95;;;;;;;-142.75;100.00;75954.22;5027295;28;20037;-58
2023/08/23 08:46:48;;;;;;;18.88;10.10;;;;;;;-142.75;100.00;75932.56;5027795;28;20718;-63
2023/08/23 08:49:14;;;;;;;13.45;8.85;;;;;;;-142.75;100.00;75922.72;5027301;28;20049;-63
2023/08/23 08:51:42;;;;;;;14.48;8.60;;;;;;;-142.75;100.00;75875.47;5027129;28;20022;-63
2023/08/23 08:54:08;;;;;;;13.90;8.32;;;;;;;-142.75;100.00;75869.56;5025465;28;20037;-63
2023/08/23 08:56:34;;;;;;;15.00;7.88;;;;;;;-142.75;100.00;75875.47;5026779;28;20033;-63
2023/08/23 08:59:00;;;;;;;15.25;7.65;;;;;;;-142.75;100.00;75851.88;5026386;28;20136;-63
2023/08/23 09:01:31;;;;;;;10.02;6.72;;;;;;;-142.75;100.00;75836.13;5029336;28;20052;-63
2023/08/23 09:03:57;;;;;;;11.65;6.65;;;;;;;-142.75;100.00;75822.34;5028077;28;20072;-63
2023/08/23 09:06:23;;;;;;;14.27;7.70;;;;;;;-142.75;100.00;75794.78;5027031;28;20025;-63
2023/08/23 09:08:49;;;;;;;13.18;6.88;;;;;;;-142.75;100.00;75812.50;5027101;28;20519;-63
2023/08/23 09:11:14;;;;;;;13.10;6.38;;;;;;;-142.75;100.00;75794.78;5027473;28;20031;-63
2023/08/23 09:13:40;;;;;;;13.25;7.18;;;;;;;-142.75;100.00;75790.84;5026684;28;20025;-63
2023/08/23 09:16:05;;;;;;;15.45;7.18;;;;;;;-142.75;100.00;75786.91;5026848;28;20029;-63
2023/08/23 09:18:32;;;;;;;11.02;5.50;;;;;;;-142.75;100.00;75781.00;5026217;28;20044;-62
2023/08/23 09:20:57;;;;;;;12.70;5.93;;;;;;;-142.75;100.00;75757.41;5026718;28;20061;-62
2023/08/23 09:23:23;;;;;;;14.20;6.03;;;;;;;-142.75;100.00;75818.41;5025959;28;20045;-62
2023/08/23 09:25:48;;;;;;;10.27;5.72;;;;;;;-142.75;100.00;75800.69;5026136;28;20061;-62
2023/08/23 09:28:14;;;;;;;12.57;6.13;;;;;;;-142.75;100.00;75769.19;5028771;28;20017;-64
2023/08/23 09:30:39;;;;;;;11.75;5.93;;;;;;;-142.75;100.00;75784.94;5045822;28;20025;-63
2023/08/23 09:33:05;;;;;;;7.05;4.20;;;;;;;-142.75;100.00;75755.44;5045890;28;20032;-63
2023/08/23 09:35:30;;;;;;;9.32;5.25;;;;;;;-142.75;100.00;75735.75;5045394;28;20488;-64
2023/08/23 09:37:56;;;;;;;11.65;5.40;;;;;;;-142.75;100.00;75727.88;5045714;28;20021;-63
2023/08/23 09:40:27;;;;;;;13.70;5.80;;;;;;;-142.75;100.00;75749.53;5040577;28;20063;-64
2023/08/23 09:42:53;;;;;;;11.07;5.57;;;;;;;-142.75;100.00;75725.91;5043426;28;20025;-61
2023/08/23 09:45:22;;;;;;;13.95;5.95;;;;;;;-142.75;100.00;75692.44;5045078;28;20040;-64
2023/08/23 09:47:52;;;;;;;13.57;6.32;;;;;;;-142.75;100.00;75767.22;5045630;28;20025;-64
2023/08/23 09:50:20;;;;;;;10.88;5.60;;;;;;;-142.75;100.00;75704.25;5045905;28;20078;-64
2023/08/23 09:52:53;;;;;;;8.70;5.75;;;;;;;-142.75;100.00;75676.69;5045304;28;20029;-63
2023/08/23 09:55:20;;;;;;;12.35;6.10;;;;;;;-142.75;100.00;75692.44;5045356;28;20021;-64
2023/08/23 09:57:46;;;;;;;14.02;6.03;;;;;;;-142.75;100.00;75686.53;5045296;28;20021;-63
2023/08/23 10:00:12;;;;;;;11.65;5.88;;;;;;;-142.75;100.00;75655.06;5022455;28;20365;-64
2023/08/23 10:02:38;;;;;;;13.40;5.38;;;;;;;-142.75;100.00;75637.34;5025327;28;20017;-63
2023/08/23 10:05:06;;;;;;;14.07;6.80;;;;;;;-142.75;100.00;75625.53;5024288;28;20029;-63
2023/08/23 10:07:35;;;;;;;10.93;5.55;;;;;;;-142.75;100.00;75582.25;5028130;28;20033;-63
2023/08/23 10:10:02;;;;;;;12.02;6.18;;;;;;;-142.75;100.00;75562.56;5026372;28;20024;-63
2023/08/23 10:12:27;;;;;;;13.20;6.15;;;;;;;-142.75;100.00;75566.50;5023331;28;20037;-63
2023/08/23 10:14:56;;;;;;;10.80;4.97;;;;;;;-142.75;100.00;75546.81;5024795;28;20036;-64
2023/08/23 10:17:22;;;;;;;11.73;5.25;;;;;;;-142.75;98.66;75552.72;5024087;28;20065;-63
2023/08/23 10:19:49;;;;;;;9.25;5.15;;;;;;;-142.75;100.00;75542.88;5025963;28;20028;-63
2023/08/23 10:22:17;;;;;;;14.57;5.90;;;;;;;-142.75;100.00;75540.91;5025921;28;20036;-64
2023/08/23 10:24:47;;;;;;;15.68;5.95;;;;;;;-142.75;96.40;75586.19;5025520;28;20200;-63
2023/08/23 10:27:12;;;;;;;10.52;4.50;;;;;;;-142.75;96.46;75546.81;5024488;28;20078;-63
2023/08/23 10:29:38;;;;;;;14.02;4.53;;;;;;;-142.75;99.38;75542.88;5024105;28;20022;-64
2023/08/23 10:32:07;;;;;;;10.27;3.38;;;;;;;-142.75;91.19;75546.81;5025536;28;20022;-64
2023/08/23 10:34:35;;;;;;;7.65;3.10;;;;;;;-142.75;90.79;75550.75;5024454;28;20094;-64
2023/08/23 10:37:11;;;;;;;9.85;3.20;;;;;;;-142.75;89.18;75546.81;5025538;28;20033;-64
2023/08/23 10:39:37;;;;;;;10.65;4.10;;;;;;;-142.75;94.36;75548.78;5025610;28;20487;-63
2023/08/23 10:42:04;;;;;;;9.95;3.60;;;;;;;-142.75;87.75;75558.63;5025512;28;20032;-64
2023/08/23 10:44:30;;;;;;;7.65;2.85;;;;;;;-142.75;87.49;75617.66;5025210;28;20449;-64
2023/08/23 10:46:57;;;;;;;6.03;2.70;;;;;;;-142.75;88.15;75659.00;5023954;28;20125;-64
2023/08/23 10:49:25;;;;;;;5.25;2.20;;;;;;;-142.75;91.33;75645.22;5023885;28;20100;-61
2023/08/23 10:51:52;;;;;;;2.97;1.42;;;;;;;-142.75;91.92;75651.13;5025132;28;20030;-63
2023/08/23 10:54:18;;;;;;;6.03;1.90;;;;;;;-142.75;91.81;75613.72;5024903;28;20018;-63
2023/08/23 10:56:43;;;;;;;5.10;1.98;;;;;;;-142.75;92.51;75570.44;5024653;28;20108;-63